»·PEaware :: SKY934 KPRC-KHII

SKY934 :: KPRC-KHII

FLIGHT INFORMATION

Flight Status: Arrived
Operator:
Sky High Charters
More flights by this operator :: More flights under this callsign
Pilot: Nick S. (39537)
Aircraft: SOCATA TBM-900
(TBM9)
More flights by this aircraft type
Origin: KPRC Love
United States
Destination: KHII Lake Havasu City
United States
More flights between these airports :: More routes between these airports
Route: WNSKI2 MUMTE V12 EED
File this flight plan on PilotEdge
Remarks:
Altitude:
(Current/Filed)
16,000ft
Speed:
(Current/Filed)
300kts
Departed: 12-Apr-23 11:55 AM
Arrived: 12-Apr-23 12:38 PM
Distance/Time
Traveled:
96nm/0:43
Distance/Time
To Go:
Arrived

Flight Plot

Page will automatically refresh every two minutes.

Flight plan parsing failed; only flown route is shown


Map Options




Map Legend


Flown Route
Filed Route
Departure Airport
Arrival Airport
Navaid (VOR, NDB)
Fix

Horizontal Profiles

Position Reports

Time Latitude Longitude Heading Altitude Ground
Speed
12-Apr-23 11:37 34.652480 -112.418824 257 5008ft 0kts
12-Apr-23 11:38 34.652480 -112.418824 257 5008ft 0kts
12-Apr-23 11:39 34.652480 -112.418824 257 5008ft 0kts
12-Apr-23 11:40 34.652480 -112.418824 257 5008ft 0kts
12-Apr-23 11:41 34.652480 -112.418824 257 5008ft 0kts
12-Apr-23 11:42 34.652480 -112.418824 257 5008ft 0kts
12-Apr-23 11:43 34.652480 -112.418824 257 5008ft 0kts
12-Apr-23 11:44 34.652480 -112.418824 257 5008ft 0kts
12-Apr-23 11:45 34.652480 -112.418824 257 5008ft 0kts
12-Apr-23 11:46 34.652480 -112.418824 257 5008ft 0kts
12-Apr-23 11:47 34.652469 -112.418878 254 5008ft 5kts
12-Apr-23 11:48 34.655723 -112.416404 40 4994ft 25kts
12-Apr-23 11:49 34.660536 -112.410365 79 4961ft 24kts
12-Apr-23 11:50 34.661457 -112.409653 305 4958ft 0kts
12-Apr-23 11:51 34.661457 -112.409653 305 4958ft 0kts
12-Apr-23 11:52 34.661457 -112.409653 305 4958ft 0kts
12-Apr-23 11:53 34.661458 -112.409655 304 4958ft 1kts
12-Apr-23 11:54 34.660486 -112.413105 222 4970ft 59kts
12-Apr-23 11:55 34.635750 -112.434482 169 6782ft 119kts
12-Apr-23 11:56 34.642422 -112.391047 109 8889ft 149kts
12-Apr-23 11:57 34.618872 -112.355227 144 10999ft 137kts
12-Apr-23 11:58 34.591348 -112.321104 141 12982ft 155kts
12-Apr-23 11:59 34.549003 -112.274413 154 12961ft 237kts
12-Apr-23 12:00 34.496218 -112.300779 242 12939ft 249kts
12-Apr-23 12:01 34.468868 -112.379304 247 12934ft 255kts
12-Apr-23 12:02 34.454632 -112.463891 259 13540ft 248kts
12-Apr-23 12:03 34.458820 -112.544862 279 14947ft 243kts
12-Apr-23 12:04 34.482535 -112.622712 289 15891ft 263kts
12-Apr-23 12:05 34.531570 -112.696220 312 15876ft 293kts
12-Apr-23 12:06 34.597161 -112.757198 331 15851ft 304kts
12-Apr-23 12:07 34.679998 -112.781915 336 15810ft 306kts
12-Apr-23 12:08 34.719615 -112.858895 275 15782ft 277kts
12-Apr-23 12:09 34.724164 -112.951470 265 15770ft 273kts
12-Apr-23 12:10 34.727184 -113.044066 268 15772ft 274kts
12-Apr-23 12:11 34.730943 -113.136060 268 15763ft 273kts
12-Apr-23 12:12 34.735147 -113.228303 268 15755ft 273kts
12-Apr-23 12:13 34.739013 -113.320412 268 15749ft 273kts
12-Apr-23 12:14 34.742905 -113.411229 268 15971ft 270kts
12-Apr-23 12:15 34.746882 -113.503118 268 15967ft 273kts
12-Apr-23 12:16 34.750857 -113.595416 268 15968ft 272kts
12-Apr-23 12:17 34.755384 -113.687375 268 15960ft 272kts
12-Apr-23 12:18 34.754777 -113.778888 263 15955ft 270kts
12-Apr-23 12:19 34.752542 -113.870322 264 15952ft 272kts
12-Apr-23 12:20 34.754474 -113.962686 267 15946ft 272kts
12-Apr-23 12:21 34.756598 -114.051414 266 15528ft 258kts
12-Apr-23 12:22 34.758530 -114.131654 265 14143ft 219kts
12-Apr-23 12:23 34.760179 -114.204640 266 12551ft 222kts
12-Apr-23 12:24 34.761985 -114.280943 266 10992ft 228kts
12-Apr-23 12:26 34.763698 -114.357575 267 9568ft 225kts
12-Apr-23 12:27 34.765261 -114.430619 265 7989ft 201kts
12-Apr-23 12:28 34.769006 -114.495602 277 6972ft 159kts
12-Apr-23 12:29 34.798098 -114.531844 348 6221ft 172kts
12-Apr-23 12:30 34.845555 -114.526923 55 5298ft 172kts
12-Apr-23 12:31 34.826511 -114.489198 154 4991ft 148kts
12-Apr-23 12:32 34.788566 -114.479075 179 4939ft 140kts
12-Apr-23 12:33 34.751151 -114.467595 166 4983ft 143kts
12-Apr-23 12:34 34.709962 -114.452149 165 4094ft 165kts
12-Apr-23 12:35 34.667429 -114.434470 154 3431ft 162kts
12-Apr-23 12:36 34.629816 -114.404475 151 2559ft 176kts
12-Apr-23 12:37 34.593898 -114.373893 143 1666ft 156kts
12-Apr-23 12:38 34.574349 -114.361228 236 763ft 16kts
12-Apr-23 12:39 34.573967 -114.362393 273 761ft 15kts
12-Apr-23 12:40 34.574081 -114.362472 57 757ft 0kts
12-Apr-23 12:41 34.574081 -114.362472 57 757ft 0kts
12-Apr-23 12:42 34.574081 -114.362472 57 757ft 0kts
12-Apr-23 12:43 34.574081 -114.362472 57 757ft 0kts
12-Apr-23 12:44 34.574081 -114.362472 57 757ft 0kts
12-Apr-23 12:45 34.574081 -114.362472 57 757ft 0kts
12-Apr-23 12:46 34.574081 -114.362472 57 757ft 0kts
12-Apr-23 12:47 34.574081 -114.362472 57 757ft 0kts
12-Apr-23 12:48 34.574081 -114.362472 57 757ft 0kts
12-Apr-23 12:48 34.574081 -114.362472 57 757ft 0kts
12-Apr-23 12:49 34.574081 -114.362472 57 757ft 0kts
12-Apr-23 12:51 34.574081 -114.362472 57 757ft 0kts
12-Apr-23 12:52 34.574081 -114.362472 57 757ft 0kts

Navigation Log

Ident Type
Flight plan parsing failed, navigation log unavailable